Time;durP1;ratioP1;P1;durP2;ratioP2;P2;SDS_P1;SDS_P2;PMS_P1;PMS_P2;Temp;Humidity;BMP_temperature;BMP_pressure;BME280_temperature;BME280_humidity;BME280_pressure;Samples;Min_cycle;Max_cycle;Signal;HPM_P1;HPM_P2
2023/12/24 00:00:30;;;;;;;19.00;5.32;;;;;;;;;;5043848;28;20036;-87
2023/12/24 00:03:15;;;;;;;17.48;3.65;;;;;;;;;;5043709;28;20064;-87
2023/12/24 00:06:00;;;;;;;19.73;4.43;;;;;;;;;;5057279;28;20061;-87
2023/12/24 00:08:45;;;;;;;12.02;3.88;;;;;;;;;;5057167;28;20499;-87
2023/12/24 00:11:30;;;;;;;19.40;4.78;;;;;;;;;;5057578;28;20086;-86
2023/12/24 00:14:15;;;;;;;12.27;4.07;;;;;;;;;;5057769;28;20075;-86
2023/12/24 00:16:59;;;;;;;15.80;4.60;;;;;;;;;;5057081;28;20039;-86
2023/12/24 00:19:44;;;;;;;20.85;4.55;;;;;;;;;;5056799;28;20117;-87
2023/12/24 00:22:29;;;;;;;17.00;3.47;;;;;;;;;;5057572;28;20048;-87
2023/12/24 00:25:14;;;;;;;16.77;4.68;;;;;;;;;;5072507;28;20063;-87
2023/12/24 00:28:01;;;;;;;20.80;4.55;;;;;;;;;;5056759;28;20101;-86
2023/12/24 00:30:46;;;;;;;16.45;3.45;;;;;;;;;;5056798;28;20039;-87
2023/12/24 00:33:30;;;;;;;15.18;4.07;;;;;;;;;;5042853;28;20553;-87
2023/12/24 00:36:15;;;;;;;18.65;4.78;;;;;;;;;;5072555;28;20040;-87
2023/12/24 00:38:59;;;;;;;18.38;3.97;;;;;;;;;;5056731;28;20085;-87
2023/12/24 00:41:44;;;;;;;22.30;4.97;;;;;;;;;;5071501;28;20040;-87
2023/12/24 00:44:29;;;;;;;17.40;4.22;;;;;;;;;;5057127;28;20500;-87
2023/12/24 00:47:14;;;;;;;22.38;4.07;;;;;;;;;;5042848;28;20546;-87
2023/12/24 00:49:59;;;;;;;18.05;6.45;;;;;;;;;;5056541;28;20039;-86
2023/12/24 00:52:44;;;;;;;9.57;4.65;;;;;;;;;;5056360;28;20043;-87
2023/12/24 00:55:28;;;;;;;16.45;4.68;;;;;;;;;;5057154;28;20071;-86
2023/12/24 00:58:14;;;;;;;22.05;4.60;;;;;;;;;;5072291;28;20167;-86
2023/12/24 01:00:59;;;;;;;15.80;4.18;;;;;;;;;;5071452;28;20035;-86
2023/12/24 01:03:44;;;;;;;25.70;5.65;;;;;;;;;;5042547;28;20396;-88
2023/12/24 01:06:28;;;;;;;16.85;4.20;;;;;;;;;;5042703;28;20105;-87
2023/12/24 01:09:13;;;;;;;22.35;5.47;;;;;;;;;;5072102;28;20039;-87
2023/12/24 01:11:58;;;;;;;22.30;5.57;;;;;;;;;;5041651;28;20039;-87
2023/12/24 01:14:48;;;;;;;20.38;5.45;;;;;;;;;;5047324;28;20488;-87
2023/12/24 01:17:33;;;;;;;18.50;5.85;;;;;;;;;;5056579;28;20047;-86
2023/12/24 01:20:19;;;;;;;23.75;7.18;;;;;;;;;;5036829;28;20036;-86
2023/12/24 01:23:04;;;;;;;18.85;5.30;;;;;;;;;;5051223;28;20066;-87
2023/12/24 01:25:48;;;;;;;21.55;5.20;;;;;;;;;;5056368;28;20076;-87
2023/12/24 01:28:33;;;;;;;13.73;5.22;;;;;;;;;;5042469;28;20078;-87
2023/12/24 01:31:17;;;;;;;19.10;6.10;;;;;;;;;;5071897;28;20042;-88
2023/12/24 01:34:02;;;;;;;14.68;5.07;;;;;;;;;;5043360;28;20086;-87
2023/12/24 01:36:46;;;;;;;16.48;4.85;;;;;;;;;;5056391;28;20499;-87
2023/12/24 01:39:32;;;;;;;15.95;4.43;;;;;;;;;;5056696;28;20086;-87
2023/12/24 01:42:17;;;;;;;19.40;5.50;;;;;;;;;;5056680;28;20047;-87
2023/12/24 01:45:01;;;;;;;24.35;4.80;;;;;;;;;;5072795;28;20047;-88
2023/12/24 01:47:46;;;;;;;23.20;6.05;;;;;;;;;;5040605;28;20040;-88
2023/12/24 01:50:32;;;;;;;16.80;5.20;;;;;;;;;;5056700;28;20044;-89
2023/12/24 01:53:18;;;;;;;16.13;5.30;;;;;;;;;;5040650;28;20511;-88
2023/12/24 01:56:04;;;;;;;22.35;5.25;;;;;;;;;;5074589;28;20108;-88
2023/12/24 01:58:50;;;;;;;11.40;3.40;;;;;;;;;;5075228;28;20031;-88
2023/12/24 02:01:35;;;;;;;16.40;3.97;;;;;;;;;;5060238;28;20599;-88
2023/12/24 02:04:20;;;;;;;10.32;2.70;;;;;;;;;;5059745;28;20161;-88
2023/12/24 02:07:06;;;;;;;14.85;3.75;;;;;;;;;;5059577;28;20081;-87
2023/12/24 02:09:50;;;;;;;11.38;3.53;;;;;;;;;;5062586;28;20456;-87
2023/12/24 02:12:36;;;;;;;21.52;5.65;;;;;;;;;;5059846;28;20051;-89
2023/12/24 02:15:20;;;;;;;20.50;3.80;;;;;;;;;;5059952;28;20103;-88
2023/12/24 02:18:07;;;;;;;12.25;4.03;;;;;;;;;;5044503;28;20071;-89
2023/12/24 02:20:51;;;;;;;16.80;4.60;;;;;;;;;;5074988;28;20055;-89
2023/12/24 02:23:36;;;;;;;14.98;4.97;;;;;;;;;;5059816;28;20039;-88
2023/12/24 02:26:26;;;;;;;13.27;3.60;;;;;;;;;;5041724;28;20440;-89
2023/12/24 02:29:27;;;;;;;11.02;4.28;;;;;;;;;;5059133;28;20511;-88
2023/12/24 02:32:15;;;;;;;17.80;4.32;;;;;;;;;;5074237;28;20112;-88
2023/12/24 02:35:01;;;;;;;20.88;4.78;;;;;;;;;;5074087;28;20035;-89
2023/12/24 02:37:45;;;;;;;20.50;5.00;;;;;;;;;;5059467;28;20043;-88
2023/12/24 02:40:30;;;;;;;23.92;6.30;;;;;;;;;;5059694;28;20117;-87
2023/12/24 02:43:14;;;;;;;19.55;5.72;;;;;;;;;;5073761;28;20086;-84
2023/12/24 02:46:01;;;;;;;14.02;4.82;;;;;;;;;;5074130;28;20405;-83
2023/12/24 02:48:46;;;;;;;20.80;5.75;;;;;;;;;;5074334;28;20415;-85
2023/12/24 02:51:31;;;;;;;17.63;5.13;;;;;;;;;;5059324;28;20035;-85
2023/12/24 02:54:15;;;;;;;11.80;4.55;;;;;;;;;;5073829;28;20069;-85
2023/12/24 02:57:00;;;;;;;16.83;6.38;;;;;;;;;;5073371;28;20087;-82
2023/12/24 02:59:44;;;;;;;16.77;5.10;;;;;;;;;;5074301;28;20069;-85
2023/12/24 03:02:29;;;;;;;14.90;4.80;;;;;;;;;;5073858;28;20149;-85
2023/12/24 03:05:13;;;;;;;12.60;4.72;;;;;;;;;;5073477;28;20089;-85
2023/12/24 03:07:58;;;;;;;13.30;4.97;;;;;;;;;;5074284;28;20083;-86
2023/12/24 03:10:43;;;;;;;10.98;4.00;;;;;;;;;;5058778;28;20082;-86
2023/12/24 03:13:27;;;;;;;11.25;5.32;;;;;;;;;;5038934;28;20401;-88
2023/12/24 03:16:12;;;;;;;14.77;4.40;;;;;;;;;;5044926;28;20104;-87
2023/12/24 03:18:57;;;;;;;11.55;3.92;;;;;;;;;;5073823;28;20044;-87
2023/12/24 03:21:44;;;;;;;11.95;4.38;;;;;;;;;;5073671;28;20040;-87
2023/12/24 03:24:29;;;;;;;8.55;3.70;;;;;;;;;;5058343;28;20118;-87
2023/12/24 03:27:14;;;;;;;10.95;3.95;;;;;;;;;;5058053;28;20557;-87
2023/12/24 03:29:59;;;;;;;10.98;4.00;;;;;;;;;;5058580;28;20035;-88
2023/12/24 03:32:43;;;;;;;7.72;3.38;;;;;;;;;;5058810;28;20079;-90
2023/12/24 03:35:28;;;;;;;8.32;3.40;;;;;;;;;;5071590;28;20042;-87
2023/12/24 03:38:12;;;;;;;15.25;3.92;;;;;;;;;;5071903;28;20508;-87
2023/12/24 03:40:57;;;;;;;6.55;3.30;;;;;;;;;;5048693;28;20031;-88
2023/12/24 03:43:42;;;;;;;8.57;3.40;;;;;;;;;;5043968;28;20405;-88
2023/12/24 03:46:27;;;;;;;11.65;3.83;;;;;;;;;;5072693;28;20115;-87
2023/12/24 03:49:11;;;;;;;6.38;3.33;;;;;;;;;;5057586;28;20040;-87
2023/12/24 03:51:56;;;;;;;8.38;3.67;;;;;;;;;;5073216;28;20091;-88
2023/12/24 03:54:40;;;;;;;10.55;3.58;;;;;;;;;;5041463;28;20124;-88
2023/12/24 03:57:25;;;;;;;8.07;3.33;;;;;;;;;;5069142;28;20055;-88
2023/12/24 04:00:09;;;;;;;11.13;2.85;;;;;;;;;;5072376;28;20090;-89
2023/12/24 04:02:55;;;;;;;7.93;3.83;;;;;;;;;;5072706;28;20060;-88
2023/12/24 04:05:39;;;;;;;9.07;3.90;;;;;;;;;;5072653;28;20039;-88
2023/12/24 04:08:23;;;;;;;7.15;3.55;;;;;;;;;;5056423;28;20043;-88
2023/12/24 04:11:27;;;;;;;7.78;3.20;;;;;;;;;;5057598;28;20078;-89
2023/12/24 04:14:12;;;;;;;7.03;2.50;;;;;;;;;;5057048;28;20446;-90
2023/12/24 04:16:56;;;;;;;9.70;3.25;;;;;;;;;;5072736;28;20067;-88
2023/12/24 04:19:41;;;;;;;5.55;2.63;;;;;;;;;;5057402;28;20040;-88
2023/12/24 04:22:25;;;;;;;10.77;2.83;;;;;;;;;;5057071;28;20102;-88
2023/12/24 04:25:09;;;;;;;3.78;2.40;;;;;;;;;;5037604;28;20574;-88
2023/12/24 04:27:54;;;;;;;4.30;2.00;;;;;;;;;;5067541;28;20065;-91
2023/12/24 04:30:38;;;;;;;4.60;2.72;;;;;;;;;;5057501;28;20035;-87
2023/12/24 04:33:23;;;;;;;6.18;3.13;;;;;;;;;;5071779;28;20082;-87
2023/12/24 04:36:08;;;;;;;7.63;2.45;;;;;;;;;;5072445;28;20039;-86
2023/12/24 04:38:53;;;;;;;5.35;2.50;;;;;;;;;;5072401;28;20123;-87
2023/12/24 04:41:37;;;;;;;9.18;2.58;;;;;;;;;;5071807;28;20043;-87
2023/12/24 04:44:22;;;;;;;10.30;3.00;;;;;;;;;;5071659;28;20039;-88
2023/12/24 04:47:07;;;;;;;4.68;2.22;;;;;;;;;;5072126;28;20040;-86
2023/12/24 04:49:51;;;;;;;3.78;2.50;;;;;;;;;;5072312;28;20087;-87
2023/12/24 04:52:37;;;;;;;4.28;2.20;;;;;;;;;;5060151;28;20054;-87
2023/12/24 04:55:22;;;;;;;6.07;2.40;;;;;;;;;;5071503;28;20035;-87
2023/12/24 04:58:06;;;;;;;4.63;2.80;;;;;;;;;;5072256;28;20043;-86
2023/12/24 05:00:51;;;;;;;5.68;2.78;;;;;;;;;;5072228;28;20051;-86
2023/12/24 05:03:36;;;;;;;6.28;3.22;;;;;;;;;;5056045;28;20068;-87
2023/12/24 05:06:21;;;;;;;6.47;3.85;;;;;;;;;;5071502;28;20500;-87
2023/12/24 05:09:05;;;;;;;7.05;3.10;;;;;;;;;;5071948;28;20039;-87
2023/12/24 05:11:50;;;;;;;4.82;2.90;;;;;;;;;;5072105;28;20086;-88
2023/12/24 05:14:35;;;;;;;9.45;3.60;;;;;;;;;;5058766;28;20094;-86
2023/12/24 05:17:20;;;;;;;9.73;3.50;;;;;;;;;;5071378;28;20522;-84
2023/12/24 05:20:05;;;;;;;6.05;3.40;;;;;;;;;;5075716;28;20036;-87
2023/12/24 05:22:49;;;;;;;6.70;2.97;;;;;;;;;;5070837;28;20118;-87
2023/12/24 05:25:34;;;;;;;8.52;3.03;;;;;;;;;;5065300;28;20442;-87
2023/12/24 05:28:18;;;;;;;8.60;3.60;;;;;;;;;;5075833;28;20071;-88
2023/12/24 05:31:03;;;;;;;8.98;3.80;;;;;;;;;;5075958;28;20542;-87
2023/12/24 05:33:47;;;;;;;7.60;3.72;;;;;;;;;;5060828;28;20040;-87
2023/12/24 05:36:35;;;;;;;6.93;3.58;;;;;;;;;;5075166;28;20086;-87
2023/12/24 05:39:19;;;;;;;8.77;4.10;;;;;;;;;;5075776;28;20082;-88
2023/12/24 05:42:04;;;;;;;9.82;4.15;;;;;;;;;;5075481;28;20550;-86
2023/12/24 05:44:49;;;;;;;8.95;4.40;;;;;;;;;;5075523;28;20047;-86
2023/12/24 05:47:33;;;;;;;12.40;4.60;;;;;;;;;;5075228;28;20070;-87
2023/12/24 05:50:18;;;;;;;15.65;5.50;;;;;;;;;;5075330;28;20086;-87
2023/12/24 05:53:02;;;;;;;11.90;4.63;;;;;;;;;;5075611;28;20093;-87
2023/12/24 05:55:47;;;;;;;11.73;4.70;;;;;;;;;;5074934;28;20040;-87
2023/12/24 05:58:32;;;;;;;15.02;5.75;;;;;;;;;;5075138;28;20446;-86
2023/12/24 06:01:16;;;;;;;10.27;5.18;;;;;;;;;;5065033;28;20146;-87
2023/12/24 06:04:01;;;;;;;12.25;5.35;;;;;;;;;;5087234;28;20056;-86
2023/12/24 06:06:45;;;;;;;10.18;5.30;;;;;;;;;;5074685;28;20120;-88
2023/12/24 06:09:30;;;;;;;12.48;5.60;;;;;;;;;;5073216;28;20040;-86
2023/12/24 06:12:14;;;;;;;14.25;5.22;;;;;;;;;;5071059;28;20035;-84
2023/12/24 06:15:01;;;;;;;10.98;5.47;;;;;;;;;;5071232;28;20546;-90
2023/12/24 06:17:46;;;;;;;19.65;6.85;;;;;;;;;;5069713;28;20034;-86
2023/12/24 06:20:32;;;;;;;14.38;5.93;;;;;;;;;;5069510;28;20498;-87
2023/12/24 06:23:17;;;;;;;14.25;6.03;;;;;;;;;;5073872;28;20032;-88
2023/12/24 06:26:01;;;;;;;14.52;5.50;;;;;;;;;;5074007;28;20166;-86
2023/12/24 06:28:46;;;;;;;18.92;6.00;;;;;;;;;;5073587;28;20446;-88
2023/12/24 06:31:30;;;;;;;15.80;6.50;;;;;;;;;;5072805;28;20128;-82
2023/12/24 06:34:15;;;;;;;21.67;6.45;;;;;;;;;;5073977;28;20047;-88
2023/12/24 06:36:59;;;;;;;16.75;5.85;;;;;;;;;;5073899;28;20522;-88
2023/12/24 06:39:44;;;;;;;23.15;5.80;;;;;;;;;;5057338;28;20036;-87
2023/12/24 06:42:28;;;;;;;17.48;5.80;;;;;;;;;;5073835;28;20105;-88
2023/12/24 06:45:13;;;;;;;21.33;7.72;;;;;;;;;;5073581;28;20488;-89
2023/12/24 06:47:59;;;;;;;25.90;7.47;;;;;;;;;;5073789;28;20039;-88
2023/12/24 06:50:43;;;;;;;22.02;7.15;;;;;;;;;;5073278;28;20082;-88
2023/12/24 06:53:28;;;;;;;21.73;6.95;;;;;;;;;;5073146;28;20043;-85
2023/12/24 06:56:13;;;;;;;33.05;7.53;;;;;;;;;;5073471;28;20412;-86
2023/12/24 06:58:57;;;;;;;19.95;6.70;;;;;;;;;;5072458;28;20035;-86
2023/12/24 07:01:42;;;;;;;25.63;6.32;;;;;;;;;;5072443;28;20492;-87
2023/12/24 07:04:26;;;;;;;22.58;6.22;;;;;;;;;;5074169;28;20507;-86
2023/12/24 07:07:11;;;;;;;22.73;6.78;;;;;;;;;;5072830;28;20086;-87
2023/12/24 07:09:55;;;;;;;24.55;6.07;;;;;;;;;;5072527;28;20043;-88
2023/12/24 07:12:40;;;;;;;21.55;6.07;;;;;;;;;;5072428;28;20059;-86
2023/12/24 07:15:24;;;;;;;18.90;5.70;;;;;;;;;;5073056;28;20075;-85
2023/12/24 07:18:09;;;;;;;25.52;6.45;;;;;;;;;;5072353;28;20047;-80
2023/12/24 07:20:54;;;;;;;28.20;6.53;;;;;;;;;;5067908;28;20118;-85
2023/12/24 07:23:39;;;;;;;27.63;6.90;;;;;;;;;;5066028;28;20047;-83
2023/12/24 07:26:23;;;;;;;31.02;8.43;;;;;;;;;;5072889;28;20120;-84
2023/12/24 07:29:08;;;;;;;20.50;6.25;;;;;;;;;;5050494;28;20085;-87
2023/12/24 07:31:52;;;;;;;23.52;6.55;;;;;;;;;;5071886;28;20074;-85
2023/12/24 07:34:37;;;;;;;23.63;7.10;;;;;;;;;;5069709;28;20038;-83
2023/12/24 07:37:21;;;;;;;21.98;6.50;;;;;;;;;;5072814;28;20039;-85
2023/12/24 07:40:09;;;;;;;21.38;5.57;;;;;;;;;;5052223;28;20065;-85
2023/12/24 07:42:54;;;;;;;21.42;5.70;;;;;;;;;;5068834;28;20116;-85
2023/12/24 07:45:38;;;;;;;25.73;6.97;;;;;;;;;;5054709;28;20047;-87
2023/12/24 07:48:26;;;;;;;21.13;6.80;;;;;;;;;;5057002;28;20047;-85
2023/12/24 07:51:11;;;;;;;24.48;7.63;;;;;;;;;;5071651;28;20124;-84
2023/12/24 07:53:55;;;;;;;24.23;6.90;;;;;;;;;;5063413;28;20048;-86
2023/12/24 07:56:40;;;;;;;27.30;7.13;;;;;;;;;;5064161;28;20055;-86
2023/12/24 07:59:24;;;;;;;21.58;6.60;;;;;;;;;;5072164;28;20829;-86
2023/12/24 08:02:09;;;;;;;19.63;6.00;;;;;;;;;;5069093;28;20082;-84
2023/12/24 08:04:55;;;;;;;25.08;6.85;;;;;;;;;;5062256;28;20493;-87
2023/12/24 08:07:39;;;;;;;22.45;5.93;;;;;;;;;;5061492;28;20102;-83
2023/12/24 08:10:24;;;;;;;21.85;5.43;;;;;;;;;;5055091;28;20400;-82
2023/12/24 08:13:09;;;;;;;20.05;5.38;;;;;;;;;;5046952;28;20131;-83
2023/12/24 08:15:53;;;;;;;20.13;4.65;;;;;;;;;;5065266;28;20071;-83
2023/12/24 08:18:38;;;;;;;25.13;6.35;;;;;;;;;;5069877;28;20063;-84
2023/12/24 08:21:22;;;;;;;18.23;4.75;;;;;;;;;;5036010;28;20546;-83
2023/12/24 08:24:08;;;;;;;16.63;4.63;;;;;;;;;;5070318;28;20047;-83
2023/12/24 08:26:52;;;;;;;18.48;6.05;;;;;;;;;;5066031;28;20056;-84
2023/12/24 08:29:37;;;;;;;22.17;5.28;;;;;;;;;;5072108;28;20043;-85
2023/12/24 08:32:22;;;;;;;21.40;5.30;;;;;;;;;;5072255;28;20123;-84
2023/12/24 08:35:07;;;;;;;32.08;6.85;;;;;;;;;;5069948;28;20062;-83
2023/12/24 08:37:52;;;;;;;23.60;5.30;;;;;;;;;;5065424;28;20035;-83
2023/12/24 08:40:36;;;;;;;28.70;5.22;;;;;;;;;;5066393;28;20177;-85
2023/12/24 08:43:21;;;;;;;21.70;5.75;;;;;;;;;;5069772;28;20484;-84
2023/12/24 08:46:06;;;;;;;25.83;6.82;;;;;;;;;;5069487;28;20122;-84
2023/12/24 08:48:50;;;;;;;26.38;7.78;;;;;;;;;;5065759;28;20036;-84
2023/12/24 08:51:35;;;;;;;28.08;6.70;;;;;;;;;;5071460;28;20077;-83
2023/12/24 08:54:19;;;;;;;26.05;6.65;;;;;;;;;;5051111;28;20082;-83
2023/12/24 08:57:04;;;;;;;25.80;8.07;;;;;;;;;;5052715;28;20039;-84
2023/12/24 08:59:48;;;;;;;25.40;8.40;;;;;;;;;;5071038;28;20039;-84
2023/12/24 09:02:33;;;;;;;28.00;8.80;;;;;;;;;;5059777;28;20044;-85
2023/12/24 09:05:19;;;;;;;33.10;7.68;;;;;;;;;;5066226;28;20557;-84
2023/12/24 09:08:04;;;;;;;24.80;7.50;;;;;;;;;;5071278;28;20051;-84
2023/12/24 09:10:48;;;;;;;37.58;8.00;;;;;;;;;;5071730;28;20059;-84
2023/12/24 09:13:33;;;;;;;24.08;7.63;;;;;;;;;;5071692;28;20082;-85
2023/12/24 09:16:17;;;;;;;28.85;8.70;;;;;;;;;;5072130;28;20035;-85
2023/12/24 09:19:02;;;;;;;24.88;8.32;;;;;;;;;;5066848;28;20039;-85
2023/12/24 09:21:46;;;;;;;26.05;7.20;;;;;;;;;;5071306;28;20044;-85
2023/12/24 09:24:31;;;;;;;23.70;8.15;;;;;;;;;;5071486;28;20120;-84
2023/12/24 09:27:15;;;;;;;26.83;8.15;;;;;;;;;;5070923;28;20044;-84
2023/12/24 09:30:04;;;;;;;20.92;7.40;;;;;;;;;;5063573;28;20136;-85
2023/12/24 09:32:48;;;;;;;29.52;8.00;;;;;;;;;;5078547;28;20165;-87
2023/12/24 09:35:33;;;;;;;23.42;8.95;;;;;;;;;;5056023;28;20098;-85
2023/12/24 09:38:17;;;;;;;27.67;8.70;;;;;;;;;;5071302;28;20119;-84
2023/12/24 09:41:02;;;;;;;23.77;7.70;;;;;;;;;;5070625;28;20453;-84
2023/12/24 09:43:46;;;;;;;28.33;8.50;;;;;;;;;;5071362;28;20530;-88
2023/12/24 09:46:31;;;;;;;27.40;8.80;;;;;;;;;;5056209;28;20392;-86
2023/12/24 09:49:15;;;;;;;30.35;6.95;;;;;;;;;;5069752;28;20168;-84
2023/12/24 09:52:00;;;;;;;32.08;7.63;;;;;;;;;;5068900;28;20106;-84
2023/12/24 09:54:45;;;;;;;30.73;7.82;;;;;;;;;;5028695;28;20184;-86
2023/12/24 09:57:30;;;;;;;22.35;6.55;;;;;;;;;;5057631;28;20101;-85
2023/12/24 10:00:15;;;;;;;31.50;8.68;;;;;;;;;;5070556;28;20124;-89
2023/12/24 10:02:59;;;;;;;22.35;6.60;;;;;;;;;;5055225;28;20097;-84
2023/12/24 10:06:00;;;;;;;26.25;7.10;;;;;;;;;;5071827;28;20133;-84
2023/12/24 10:08:46;;;;;;;22.88;7.72;;;;;;;;;;5066185;28;20396;-84
2023/12/24 10:11:35;;;;;;;29.02;7.88;;;;;;;;;;5074192;28;20065;-84
2023/12/24 10:14:20;;;;;;;21.95;8.68;;;;;;;;;;5073821;28;20044;-85
2023/12/24 10:17:05;;;;;;;40.47;9.15;;;;;;;;;;5071143;28;20114;-84
2023/12/24 10:19:50;;;;;;;24.92;7.65;;;;;;;;;;5069172;28;20035;-85
2023/12/24 10:22:35;;;;;;;30.60;8.95;;;;;;;;;;5073636;28;20048;-84
2023/12/24 10:25:20;;;;;;;17.58;6.88;;;;;;;;;;5071617;28;20170;-85
2023/12/24 10:28:05;;;;;;;22.98;7.85;;;;;;;;;;5072085;28;20481;-82
2023/12/24 10:30:50;;;;;;;17.50;7.30;;;;;;;;;;5071370;28;20039;-86
2023/12/24 10:33:36;;;;;;;19.52;7.18;;;;;;;;;;5071070;28;20127;-86
2023/12/24 10:36:22;;;;;;;23.40;7.13;;;;;;;;;;5071473;28;20457;-86
2023/12/24 10:39:13;;;;;;;18.45;6.30;;;;;;;;;;5066396;28;20044;-86
2023/12/24 10:41:58;;;;;;;17.40;6.50;;;;;;;;;;5067317;28;20488;-86
2023/12/24 10:44:43;;;;;;;18.05;5.80;;;;;;;;;;5064898;28;20047;-91
2023/12/24 10:47:27;;;;;;;19.77;5.97;;;;;;;;;;5054704;28;20502;-87
2023/12/24 10:50:12;;;;;;;15.93;5.18;;;;;;;;;;5072392;28;20043;-88
2023/12/24 10:52:57;;;;;;;16.90;6.10;;;;;;;;;;5037091;28;20040;-88
2023/12/24 10:55:45;;;;;;;15.90;5.35;;;;;;;;;;5071698;28;20450;-87
2023/12/24 10:58:48;;;;;;;18.23;6.60;;;;;;;;;;5073144;28;20043;-87
2023/12/24 11:01:33;;;;;;;19.50;6.22;;;;;;;;;;5064439;28;20079;-87
2023/12/24 11:04:36;;;;;;;20.10;6.03;;;;;;;;;;5068713;28;20050;-84
2023/12/24 11:07:39;;;;;;;16.20;5.85;;;;;;;;;;5068428;28;20075;-87
2023/12/24 11:10:40;;;;;;;23.33;6.13;;;;;;;;;;5054979;28;20564;-90
2023/12/24 11:13:31;;;;;;;25.42;6.45;;;;;;;;;;5058063;28;20084;-85
2023/12/24 11:16:42;;;;;;;24.88;6.75;;;;;;;;;;5060335;28;20117;-86
2023/12/24 11:19:27;;;;;;;16.73;5.63;;;;;;;;;;5073643;28;20039;-86
2023/12/24 11:22:12;;;;;;;17.85;5.38;;;;;;;;;;5065531;28;20499;-87
2023/12/24 11:25:16;;;;;;;20.77;5.60;;;;;;;;;;5068985;28;20031;-86
2023/12/24 11:28:01;;;;;;;24.13;5.43;;;;;;;;;;5078900;28;20035;-86
2023/12/24 11:31:05;;;;;;;21.83;5.90;;;;;;;;;;5072272;28;20049;-87
2023/12/24 11:33:51;;;;;;;20.85;5.63;;;;;;;;;;5061052;28;20036;-87
2023/12/24 11:36:35;;;;;;;13.90;5.03;;;;;;;;;;5073181;28;20040;-87
2023/12/24 11:39:20;;;;;;;16.48;5.40;;;;;;;;;;5071408;28;20093;-87
2023/12/24 11:42:06;;;;;;;17.23;4.75;;;;;;;;;;5060605;28;20035;-85
2023/12/24 11:44:55;;;;;;;18.02;4.60;;;;;;;;;;5063698;28;20148;-85
2023/12/24 11:47:40;;;;;;;13.68;4.82;;;;;;;;;;5071468;28;20443;-85
2023/12/24 11:50:24;;;;;;;19.65;5.53;;;;;;;;;;5079493;28;20052;-85
2023/12/24 11:53:09;;;;;;;16.42;5.68;;;;;;;;;;5072616;28;20047;-86
2023/12/24 11:56:03;;;;;;;12.25;5.30;;;;;;;;;;5073351;28;20044;-86
2023/12/24 11:58:47;;;;;;;23.38;6.30;;;;;;;;;;5076118;28;20039;-86
2023/12/24 12:01:34;;;;;;;21.63;5.32;;;;;;;;;;5085992;28;20063;-85
2023/12/24 12:04:20;;;;;;;17.70;6.65;;;;;;;;;;5070956;28;20433;-86
2023/12/24 12:07:05;;;;;;;13.48;4.88;;;;;;;;;;5070815;28;20043;-87
2023/12/24 12:09:49;;;;;;;23.02;5.43;;;;;;;;;;5071941;28;20085;-84
2023/12/24 12:12:34;;;;;;;18.23;5.75;;;;;;;;;;5063342;28;20048;-87
2023/12/24 12:15:20;;;;;;;17.80;4.80;;;;;;;;;;5071109;28;20089;-85
2023/12/24 12:18:05;;;;;;;20.15;5.47;;;;;;;;;;5067787;28;20105;-86
2023/12/24 12:20:49;;;;;;;18.98;5.50;;;;;;;;;;5077429;28;20107;-85
2023/12/24 12:23:34;;;;;;;18.13;5.35;;;;;;;;;;5068121;28;20046;-83
2023/12/24 12:26:18;;;;;;;18.38;5.80;;;;;;;;;;5078000;28;20241;-84
2023/12/24 12:29:03;;;;;;;19.50;5.63;;;;;;;;;;5067852;28;20031;-84
2023/12/24 12:31:47;;;;;;;15.10;5.53;;;;;;;;;;5076856;28;20428;-84
2023/12/24 12:34:32;;;;;;;17.52;5.93;;;;;;;;;;5072432;28;20173;-85
2023/12/24 12:37:17;;;;;;;24.83;6.95;;;;;;;;;;5071254;28;20063;-92
2023/12/24 12:40:01;;;;;;;15.30;5.82;;;;;;;;;;5073252;28;20170;-85
2023/12/24 12:42:46;;;;;;;18.45;6.57;;;;;;;;;;5066619;28;20611;-84
2023/12/24 12:45:30;;;;;;;17.35;6.45;;;;;;;;;;5072481;28;20044;-85
2023/12/24 12:48:15;;;;;;;18.38;6.78;;;;;;;;;;5071284;28;20082;-89
2023/12/24 12:51:01;;;;;;;18.30;6.90;;;;;;;;;;5058246;28;20115;-81
2023/12/24 12:53:46;;;;;;;26.73;7.10;;;;;;;;;;5075808;28;20039;-84
2023/12/24 12:56:30;;;;;;;26.63;6.97;;;;;;;;;;5046260;28;20051;-84
2023/12/24 12:59:24;;;;;;;25.52;7.00;;;;;;;;;;5063118;28;20043;-88
2023/12/24 13:02:09;;;;;;;22.92;7.53;;;;;;;;;;5057963;28;20036;-88
2023/12/24 13:04:54;;;;;;;23.63;7.50;;;;;;;;;;5047658;28;20101;-89
2023/12/24 13:07:38;;;;;;;25.88;8.57;;;;;;;;;;5079717;28;20047;-88
2023/12/24 13:10:27;;;;;;;24.95;7.35;;;;;;;;;;5077759;28;20043;-81
2023/12/24 13:13:13;;;;;;;20.23;6.55;;;;;;;;;;5065086;28;20054;-82
2023/12/24 13:16:05;;;;;;;28.70;8.63;;;;;;;;;;5063769;28;20044;-85
2023/12/24 13:18:50;;;;;;;32.63;8.23;;;;;;;;;;5079097;28;20404;-86
2023/12/24 13:21:35;;;;;;;37.17;8.63;;;;;;;;;;5071513;28;20039;-85
2023/12/24 13:24:19;;;;;;;25.58;8.55;;;;;;;;;;5067279;28;20091;-91
2023/12/24 13:27:06;;;;;;;30.70;9.15;;;;;;;;;;5070316;28;20092;-83
2023/12/24 13:29:51;;;;;;;28.05;8.77;;;;;;;;;;5075011;28;20105;-85
2023/12/24 13:32:44;;;;;;;26.75;7.30;;;;;;;;;;5062910;28;20138;-86
2023/12/24 13:35:33;;;;;;;29.23;7.38;;;;;;;;;;5081179;28;20084;-83
2023/12/24 13:38:24;;;;;;;28.55;7.72;;;;;;;;;;5086042;28;20089;-84
2023/12/24 13:41:09;;;;;;;19.73;6.18;;;;;;;;;;5074526;28;20078;-85
2023/12/24 13:43:54;;;;;;;23.27;7.22;;;;;;;;;;5086004;28;20047;-82
2023/12/24 13:46:39;;;;;;;20.90;6.63;;;;;;;;;;5086010;28;20507;-81
2023/12/24 13:49:27;;;;;;;22.45;6.35;;;;;;;;;;5079611;28;20745;-90
2023/12/24 13:52:13;;;;;;;21.30;6.50;;;;;;;;;;5088752;28;20115;-82
2023/12/24 13:55:00;;;;;;;19.48;5.65;;;;;;;;;;5072477;28;20039;-83
2023/12/24 13:57:48;;;;;;;20.35;6.53;;;;;;;;;;5062011;28;20063;-84
2023/12/24 14:00:33;;;;;;;22.42;5.18;;;;;;;;;;5069903;28;20159;-88
2023/12/24 14:03:18;;;;;;;19.40;5.60;;;;;;;;;;5090574;28;20173;-85
2023/12/24 14:06:11;;;;;;;18.88;5.45;;;;;;;;;;5045635;28;20054;-84
2023/12/24 14:09:06;;;;;;;14.27;4.72;;;;;;;;;;5058145;28;20102;-83
2023/12/24 14:11:51;;;;;;;15.85;3.88;;;;;;;;;;5072684;28;20035;-84
2023/12/24 14:14:36;;;;;;;21.92;4.80;;;;;;;;;;5057745;28;20245;-81
2023/12/24 14:17:21;;;;;;;13.27;4.72;;;;;;;;;;5072653;28;20047;-81
2023/12/24 14:20:07;;;;;;;13.32;4.22;;;;;;;;;;5038339;28;20450;-81
2023/12/24 14:22:53;;;;;;;13.38;2.80;;;;;;;;;;5067955;28;20036;-80
2023/12/24 14:25:39;;;;;;;7.28;3.08;;;;;;;;;;5048286;28;20091;-83
2023/12/24 14:28:32;;;;;;;10.23;2.53;;;;;;;;;;5049333;28;20047;-83
2023/12/24 14:31:16;;;;;;;8.23;2.80;;;;;;;;;;5066200;28;20054;-82
2023/12/24 14:34:07;;;;;;;6.65;2.30;;;;;;;;;;5049542;28;20154;-81
2023/12/24 14:36:52;;;;;;;7.45;1.92;;;;;;;;;;5071710;28;20036;-82
2023/12/24 14:39:57;;;;;;;3.03;1.65;;;;;;;;;;5056875;28;20086;-81
2023/12/24 14:42:43;;;;;;;7.22;1.73;;;;;;;;;;5068890;28;20047;-80
2023/12/24 14:45:36;;;;;;;11.77;3.38;;;;;;;;;;5056402;28;20163;-82
2023/12/24 14:48:42;;;;;;;8.75;1.67;;;;;;;;;;5058865;28;20106;-82
2023/12/24 14:51:27;;;;;;;5.05;1.60;;;;;;;;;;5050381;28;20067;-83
2023/12/24 14:54:17;;;;;;;6.15;1.80;;;;;;;;;;5057516;28;20405;-80
2023/12/24 14:57:04;;;;;;;6.25;1.80;;;;;;;;;;5058210;28;20039;-81
2023/12/24 14:59:58;;;;;;;7.22;1.50;;;;;;;;;;5057748;28;20341;-81
2023/12/24 15:02:43;;;;;;;6.70;1.48;;;;;;;;;;5055794;28;20120;-83
2023/12/24 15:05:28;;;;;;;7.93;1.80;;;;;;;;;;5067440;28;20108;-83
2023/12/24 15:08:18;;;;;;;9.50;1.60;;;;;;;;;;5086122;28;20071;-82
2023/12/24 15:11:11;;;;;;;4.32;1.48;;;;;;;;;;5072488;28;20167;-82
2023/12/24 15:14:26;;;;;;;5.97;1.35;;;;;;;;;;5059969;28;20401;-82
2023/12/24 15:17:15;;;;;;;5.97;1.40;;;;;;;;;;5072299;28;20039;-81
2023/12/24 15:20:01;;;;;;;7.55;1.60;;;;;;;;;;5050693;28;20047;-82
2023/12/24 15:22:51;;;;;;;5.55;1.30;;;;;;;;;;5061978;28;20134;-81
2023/12/24 15:25:49;;;;;;;4.00;1.13;;;;;;;;;;5071975;28;20121;-82
2023/12/24 15:28:51;;;;;;;7.10;1.85;;;;;;;;;;5070353;28;20233;-83
2023/12/24 15:32:14;;;;;;;9.02;3.15;;;;;;;;;;5061640;28;20099;-82
2023/12/24 15:35:41;;;;;;;7.28;2.00;;;;;;;;;;5065441;28;20044;-82
2023/12/24 15:38:47;;;;;;;6.68;2.28;;;;;;;;;;5069970;28;20515;-83
2023/12/24 15:41:38;;;;;;;10.38;2.42;;;;;;;;;;5070212;28;20043;-84
2023/12/24 15:44:50;;;;;;;6.10;2.30;;;;;;;;;;5055892;28;20055;-84
2023/12/24 15:47:38;;;;;;;8.80;3.13;;;;;;;;;;5059092;28;20040;-81
2023/12/24 15:50:47;;;;;;;12.27;3.50;;;;;;;;;;5073721;28;20435;-81
2023/12/24 15:53:41;;;;;;;5.43;2.50;;;;;;;;;;5067211;28;20447;-84
2023/12/24 15:56:30;;;;;;;14.57;3.45;;;;;;;;;;5063766;28;20099;-83
2023/12/24 15:59:15;;;;;;;11.70;3.80;;;;;;;;;;5039576;28;20040;-82
2023/12/24 16:02:00;;;;;;;14.50;3.38;;;;;;;;;;5071080;28;20043;-82
2023/12/24 16:04:45;;;;;;;12.80;3.63;;;;;;;;;;5035970;28;20409;-81
2023/12/24 16:07:29;;;;;;;16.05;4.28;;;;;;;;;;5070244;28;20105;-83
2023/12/24 16:10:14;;;;;;;16.90;4.22;;;;;;;;;;5055837;28;20052;-83
2023/12/24 16:13:06;;;;;;;19.80;4.43;;;;;;;;;;5070832;28;20621;-83
2023/12/24 16:15:50;;;;;;;20.33;5.28;;;;;;;;;;5056773;28;20162;-83
2023/12/24 16:18:37;;;;;;;22.55;5.68;;;;;;;;;;5069351;28;20043;-83
2023/12/24 16:21:24;;;;;;;25.63;5.60;;;;;;;;;;5045568;28;20051;-84
2023/12/24 16:24:08;;;;;;;22.35;5.63;;;;;;;;;;5046710;28;20096;-89
2023/12/24 16:26:55;;;;;;;26.08;5.15;;;;;;;;;;5054854;28;20435;-82